OAL117 LGTS-LICR
Flight info
| Callsign | OAL117 |
|---|---|
| Flight time | 1h 37m |
| Altitude | 36000 |
| Route | LOPOS UM600 KRK UL869 LATAN DCT GEMVI DCT CRN DCT KOGEB DCT CDC DCT GIMEL |
| Aircraft | A320/M-SDE3FGHIRWY/LB1 |
Departure
| Time | 2026-05-01 10:19 |
|---|---|
| Airport | Thessaloniki Macedonia International Airport (LGTS) |
Arrival
| Time | 2026-05-01 11:56 |
|---|---|
| Airport | Reggio Calabria Airport (LICR) |
| Time | Latitude | Longitude | Altitude | Speed | Heading |
|---|---|---|---|---|---|
| 2026-05-01 10:08 | 40.52433 | 22.97429 | 28 ft | 0 kts | 44° |
| 2026-05-01 10:10 | 40.52407 | 22.97396 | 28 ft | 4 kts | 44° |
| 2026-05-01 10:11 | 40.52393 | 22.97371 | 28 ft | 4 kts | 84° |
| 2026-05-01 10:11 | 40.52387 | 22.97371 | 28 ft | 3 kts | 123° |
| 2026-05-01 10:11 | 40.52376 | 22.97387 | 28 ft | 0 kts | 137° |
| 2026-05-01 10:14 | 40.52369 | 22.97395 | 28 ft | 4 kts | 137° |
| 2026-05-01 10:14 | 40.52341 | 22.97430 | 28 ft | 7 kts | 136° |
| 2026-05-01 10:14 | 40.52301 | 22.97479 | 28 ft | 9 kts | 136° |
| 2026-05-01 10:15 | 40.52251 | 22.97541 | 28 ft | 11 kts | 136° |
| 2026-05-01 10:15 | 40.52194 | 22.97618 | 28 ft | 13 kts | 135° |
| 2026-05-01 10:15 | 40.52118 | 22.97691 | 28 ft | 14 kts | 137° |
| 2026-05-01 10:15 | 40.52044 | 22.97794 | 29 ft | 16 kts | 133° |
| 2026-05-01 10:16 | 40.51986 | 22.97928 | 29 ft | 18 kts | 108° |
| 2026-05-01 10:16 | 40.51954 | 22.98100 | 29 ft | 20 kts | 103° |
| 2026-05-01 10:16 | 40.51879 | 22.98502 | 28 ft | 25 kts | 103° |
| 2026-05-01 10:17 | 40.51834 | 22.98676 | 28 ft | 12 kts | 141° |
| 2026-05-01 10:17 | 40.51691 | 22.98618 | 28 ft | 10 kts | 266° |
| 2026-05-01 10:17 | 40.51695 | 22.98566 | 28 ft | 10 kts | 277° |
| 2026-05-01 10:18 | 40.51937 | 22.97228 | 26 ft | 131 kts | 283° |
| 2026-05-01 10:18 | 40.52194 | 22.95891 | 126 ft | 163 kts | 285° |
| 2026-05-01 10:18 | 40.52549 | 22.94429 | 555 ft | 177 kts | 286° |
| 2026-05-01 10:19 | 40.52960 | 22.92817 | 1011 ft | 197 kts | 288° |
| 2026-05-01 10:19 | 40.53384 | 22.90973 | 1411 ft | 223 kts | 285° |
| 2026-05-01 10:19 | 40.53813 | 22.88894 | 1849 ft | 247 kts | 285° |
| 2026-05-01 10:20 | 40.54737 | 22.84343 | 3426 ft | 261 kts | 285° |
| 2026-05-01 10:20 | 40.55217 | 22.82022 | 4343 ft | 264 kts | 286° |
| 2026-05-01 10:20 | 40.55446 | 22.79626 | 5204 ft | 269 kts | 262° |
| 2026-05-01 10:20 | 40.54748 | 22.77379 | 6034 ft | 273 kts | 233° |
| 2026-05-01 10:21 | 40.53316 | 22.75755 | 6880 ft | 275 kts | 207° |
| 2026-05-01 10:21 | 40.49535 | 22.75237 | 8538 ft | 279 kts | 181° |
| 2026-05-01 10:21 | 40.47603 | 22.75009 | 9353 ft | 280 kts | 193° |
| 2026-05-01 10:22 | 40.44000 | 22.73036 | 10664 ft | 292 kts | 216° |
| 2026-05-01 10:22 | 40.40966 | 22.68966 | 11006 ft | 333 kts | 232° |
| 2026-05-01 10:23 | 40.39484 | 22.66576 | 11525 ft | 341 kts | 232° |
| 2026-05-01 10:23 | 40.36453 | 22.61725 | 12832 ft | 347 kts | 232° |
| 2026-05-01 10:23 | 40.34912 | 22.59276 | 13504 ft | 350 kts | 232° |
| 2026-05-01 10:24 | 40.31787 | 22.54330 | 14758 ft | 355 kts | 232° |
| 2026-05-01 10:24 | 40.28814 | 22.49122 | 15903 ft | 358 kts | 244° |
| 2026-05-01 10:25 | 40.26777 | 22.43159 | 17080 ft | 361 kts | 248° |
| 2026-05-01 10:25 | 40.24743 | 22.37087 | 18294 ft | 366 kts | 248° |
| 2026-05-01 10:26 | 40.23708 | 22.34026 | 18864 ft | 369 kts | 248° |
| 2026-05-01 10:26 | 40.22667 | 22.30951 | 19430 ft | 371 kts | 248° |
| 2026-05-01 10:26 | 40.20564 | 22.24748 | 20579 ft | 375 kts | 248° |
| 2026-05-01 10:27 | 40.18445 | 22.18517 | 21637 ft | 379 kts | 249° |
| 2026-05-01 10:27 | 40.16295 | 22.12178 | 22603 ft | 383 kts | 249° |
| 2026-05-01 10:28 | 40.15208 | 22.08975 | 23083 ft | 385 kts | 249° |
| 2026-05-01 10:28 | 40.13014 | 22.02541 | 24001 ft | 389 kts | 249° |
| 2026-05-01 10:28 | 40.12281 | 22.00400 | 24249 ft | 390 kts | 249° |
| 2026-05-01 10:29 | 40.10026 | 21.93922 | 25006 ft | 394 kts | 248° |
| 2026-05-01 10:29 | 40.08496 | 21.89610 | 25494 ft | 395 kts | 248° |
| 2026-05-01 10:30 | 40.06165 | 21.83071 | 26197 ft | 399 kts | 248° |
| 2026-05-01 10:30 | 40.04200 | 21.77542 | 26793 ft | 401 kts | 249° |
| 2026-05-01 10:31 | 40.01853 | 21.70931 | 27472 ft | 405 kts | 249° |
| 2026-05-01 10:31 | 39.99467 | 21.64228 | 28175 ft | 407 kts | 249° |
| 2026-05-01 10:32 | 39.97075 | 21.57553 | 29111 ft | 405 kts | 249° |
| 2026-05-01 10:32 | 39.95898 | 21.54269 | 29592 ft | 403 kts | 249° |
| 2026-05-01 10:32 | 39.93564 | 21.47699 | 30540 ft | 400 kts | 249° |
| 2026-05-01 10:33 | 39.91230 | 21.41137 | 31342 ft | 398 kts | 249° |
| 2026-05-01 10:33 | 39.88906 | 21.34611 | 32135 ft | 396 kts | 249° |
| 2026-05-01 10:34 | 39.87744 | 21.31351 | 32498 ft | 396 kts | 249° |
| 2026-05-01 10:34 | 39.86585 | 21.28100 | 32855 ft | 396 kts | 249° |
| 2026-05-01 10:34 | 39.85423 | 21.24848 | 33240 ft | 395 kts | 249° |
| 2026-05-01 10:35 | 39.83097 | 21.18378 | 33982 ft | 394 kts | 248° |
| 2026-05-01 10:35 | 39.81957 | 21.15211 | 34308 ft | 394 kts | 248° |
| 2026-05-01 10:35 | 39.80800 | 21.11993 | 34614 ft | 393 kts | 248° |
| 2026-05-01 10:35 | 39.79636 | 21.08758 | 34901 ft | 393 kts | 248° |
| 2026-05-01 10:36 | 39.77329 | 21.02361 | 35411 ft | 393 kts | 248° |
| 2026-05-01 10:36 | 39.76164 | 20.99136 | 35676 ft | 393 kts | 248° |
| 2026-05-01 10:36 | 39.75001 | 20.95920 | 35838 ft | 394 kts | 248° |
| 2026-05-01 10:37 | 39.73824 | 20.92672 | 35870 ft | 399 kts | 248° |
| 2026-05-01 10:37 | 39.70235 | 20.82780 | 35881 ft | 406 kts | 248° |
| 2026-05-01 10:38 | 39.67894 | 20.76093 | 35872 ft | 405 kts | 250° |
| 2026-05-01 10:38 | 39.65663 | 20.69411 | 35873 ft | 405 kts | 250° |
| 2026-05-01 10:39 | 39.63413 | 20.62692 | 35859 ft | 406 kts | 250° |
| 2026-05-01 10:39 | 39.61149 | 20.56009 | 35852 ft | 406 kts | 249° |
| 2026-05-01 10:40 | 39.58858 | 20.49309 | 35839 ft | 406 kts | 249° |
| 2026-05-01 10:40 | 39.56556 | 20.42602 | 35834 ft | 406 kts | 249° |
| 2026-05-01 10:41 | 39.54288 | 20.36000 | 35805 ft | 399 kts | 249° |
| 2026-05-01 10:42 | 39.50953 | 20.26311 | 35820 ft | 385 kts | 249° |
| 2026-05-01 10:42 | 39.49026 | 20.20722 | 35819 ft | 378 kts | 249° |
| 2026-05-01 10:43 | 39.46904 | 20.14574 | 35818 ft | 370 kts | 249° |
| 2026-05-01 10:43 | 39.44863 | 20.08591 | 35820 ft | 360 kts | 253° |
| 2026-05-01 10:44 | 39.43724 | 20.02416 | 35818 ft | 347 kts | 262° |
| 2026-05-01 10:44 | 39.42898 | 19.96340 | 35819 ft | 339 kts | 262° |
| 2026-05-01 10:45 | 39.42079 | 19.90403 | 35820 ft | 330 kts | 262° |
| 2026-05-01 10:45 | 39.41281 | 19.84608 | 35823 ft | 322 kts | 262° |
| 2026-05-01 10:46 | 39.40505 | 19.79026 | 35821 ft | 312 kts | 262° |
| 2026-05-01 10:46 | 39.39750 | 19.73596 | 35823 ft | 300 kts | 262° |
| 2026-05-01 10:46 | 39.39387 | 19.70963 | 35824 ft | 294 kts | 262° |
| 2026-05-01 10:47 | 39.39038 | 19.68390 | 35767 ft | 289 kts | 262° |
| 2026-05-01 10:47 | 39.38719 | 19.65827 | 35531 ft | 290 kts | 264° |
| 2026-05-01 10:47 | 39.38449 | 19.63214 | 35193 ft | 293 kts | 265° |
| 2026-05-01 10:47 | 39.38237 | 19.60623 | 35011 ft | 293 kts | 266° |
| 2026-05-01 10:48 | 39.38080 | 19.58023 | 34952 ft | 287 kts | 268° |
| 2026-05-01 10:48 | 39.37979 | 19.55460 | 34848 ft | 284 kts | 269° |
| 2026-05-01 10:48 | 39.37933 | 19.52892 | 34606 ft | 286 kts | 270° |
| 2026-05-01 10:48 | 39.37944 | 19.50310 | 34343 ft | 288 kts | 272° |
| 2026-05-01 10:49 | 39.38011 | 19.47723 | 34184 ft | 286 kts | 273° |
| 2026-05-01 10:49 | 39.38134 | 19.45163 | 34099 ft | 283 kts | 274° |
| 2026-05-01 10:49 | 39.38310 | 19.42642 | 33952 ft | 281 kts | 276° |
| 2026-05-01 10:49 | 39.38538 | 19.40161 | 33703 ft | 282 kts | 277° |
| 2026-05-01 10:50 | 39.38824 | 19.37646 | 33454 ft | 283 kts | 279° |
| 2026-05-01 10:50 | 39.39166 | 19.35143 | 33304 ft | 281 kts | 280° |
| 2026-05-01 10:50 | 39.39560 | 19.32676 | 33201 ft | 278 kts | 282° |
| 2026-05-01 10:50 | 39.40004 | 19.30243 | 33036 ft | 277 kts | 283° |
| 2026-05-01 10:51 | 39.40502 | 19.27829 | 32799 ft | 279 kts | 285° |
| 2026-05-01 10:51 | 39.41056 | 19.25421 | 32583 ft | 279 kts | 286° |
| 2026-05-01 10:51 | 39.41661 | 19.23044 | 32464 ft | 277 kts | 288° |
| 2026-05-01 10:51 | 39.42315 | 19.20710 | 32363 ft | 274 kts | 289° |
| 2026-05-01 10:52 | 39.43016 | 19.18416 | 32173 ft | 275 kts | 291° |
| 2026-05-01 10:52 | 39.43771 | 19.16135 | 31935 ft | 277 kts | 292° |
| 2026-05-01 10:52 | 39.44581 | 19.13875 | 31782 ft | 276 kts | 294° |
| 2026-05-01 10:52 | 39.45435 | 19.11666 | 31709 ft | 273 kts | 295° |
| 2026-05-01 10:53 | 39.46333 | 19.09503 | 31573 ft | 272 kts | 297° |
| 2026-05-01 10:53 | 39.47268 | 19.07399 | 31369 ft | 274 kts | 298° |
| 2026-05-01 10:53 | 39.48267 | 19.05293 | 31182 ft | 274 kts | 300° |
| 2026-05-01 10:53 | 39.49309 | 19.03235 | 31091 ft | 272 kts | 301° |
| 2026-05-01 10:54 | 39.50388 | 19.01238 | 30988 ft | 270 kts | 303° |
| 2026-05-01 10:54 | 39.51510 | 18.99283 | 30797 ft | 271 kts | 304° |
| 2026-05-01 10:54 | 39.52683 | 18.97360 | 30618 ft | 273 kts | 306° |
| 2026-05-01 10:54 | 39.53900 | 18.95481 | 30510 ft | 271 kts | 308° |
| 2026-05-01 10:55 | 39.55149 | 18.93664 | 30415 ft | 269 kts | 309° |
| 2026-05-01 10:55 | 39.56435 | 18.91903 | 30260 ft | 270 kts | 311° |
| 2026-05-01 10:55 | 39.57765 | 18.90182 | 30075 ft | 271 kts | 312° |
| 2026-05-01 10:55 | 39.59140 | 18.88507 | 29933 ft | 270 kts | 314° |
| 2026-05-01 10:56 | 39.60529 | 18.86912 | 29826 ft | 268 kts | 315° |
| 2026-05-01 10:56 | 39.61963 | 18.85361 | 29658 ft | 269 kts | 317° |
| 2026-05-01 10:56 | 39.63440 | 18.83856 | 29458 ft | 270 kts | 319° |
| 2026-05-01 10:56 | 39.64950 | 18.82408 | 29319 ft | 270 kts | 320° |
| 2026-05-01 10:57 | 39.66489 | 18.81022 | 29163 ft | 269 kts | 321° |
| 2026-05-01 10:57 | 39.68014 | 18.79354 | 27761 ft | 304 kts | 304° |
| 2026-05-01 10:57 | 39.69040 | 18.76783 | 26606 ft | 345 kts | 288° |
| 2026-05-01 10:57 | 39.69268 | 18.73464 | 25154 ft | 398 kts | 262° |
| 2026-05-01 10:58 | 39.68207 | 18.69998 | 24571 ft | 430 kts | 238° |
| 2026-05-01 10:58 | 39.66076 | 18.67164 | 24345 ft | 449 kts | 221° |
| 2026-05-01 10:58 | 39.63561 | 18.64702 | 24116 ft | 455 kts | 220° |
| 2026-05-01 10:58 | 39.61020 | 18.62222 | 23888 ft | 457 kts | 220° |
| 2026-05-01 10:59 | 39.58467 | 18.59731 | 23631 ft | 458 kts | 220° |
| 2026-05-01 10:59 | 39.55914 | 18.57241 | 23346 ft | 459 kts | 220° |
| 2026-05-01 10:59 | 39.53357 | 18.54748 | 23068 ft | 460 kts | 220° |
| 2026-05-01 10:59 | 39.51031 | 18.52023 | 22777 ft | 455 kts | 232° |
| 2026-05-01 11:00 | 39.49134 | 18.48752 | 22514 ft | 454 kts | 237° |
| 2026-05-01 11:00 | 39.47292 | 18.45412 | 22237 ft | 455 kts | 237° |
| 2026-05-01 11:00 | 39.45459 | 18.42071 | 21969 ft | 455 kts | 237° |
| 2026-05-01 11:00 | 39.43633 | 18.38738 | 21695 ft | 454 kts | 237° |
| 2026-05-01 11:01 | 39.41806 | 18.35404 | 21425 ft | 453 kts | 237° |
| 2026-05-01 11:01 | 39.39982 | 18.32088 | 21158 ft | 451 kts | 237° |
| 2026-05-01 11:01 | 39.38157 | 18.28787 | 20895 ft | 449 kts | 237° |
| 2026-05-01 11:01 | 39.36380 | 18.25583 | 20633 ft | 448 kts | 237° |
| 2026-05-01 11:02 | 39.34564 | 18.22309 | 20373 ft | 446 kts | 237° |
| 2026-05-01 11:02 | 39.32760 | 18.19057 | 20117 ft | 444 kts | 237° |
| 2026-05-01 11:02 | 39.30963 | 18.15817 | 19881 ft | 443 kts | 237° |
| 2026-05-01 11:02 | 39.29173 | 18.12589 | 19630 ft | 441 kts | 237° |
| 2026-05-01 11:03 | 39.27413 | 18.09416 | 19393 ft | 439 kts | 237° |
| 2026-05-01 11:03 | 39.25634 | 18.06215 | 19159 ft | 438 kts | 237° |
| 2026-05-01 11:03 | 39.23860 | 18.03026 | 18922 ft | 436 kts | 237° |
| 2026-05-01 11:03 | 39.22090 | 17.99856 | 18698 ft | 434 kts | 237° |
| 2026-05-01 11:04 | 39.20323 | 17.96693 | 18466 ft | 433 kts | 237° |
| 2026-05-01 11:04 | 39.18565 | 17.93555 | 18200 ft | 431 kts | 237° |
| 2026-05-01 11:04 | 39.16812 | 17.90425 | 17938 ft | 430 kts | 237° |
| 2026-05-01 11:04 | 39.15063 | 17.87302 | 17675 ft | 428 kts | 237° |
| 2026-05-01 11:05 | 39.13325 | 17.84195 | 17413 ft | 426 kts | 237° |
| 2026-05-01 11:05 | 39.11799 | 17.80948 | 17149 ft | 421 kts | 246° |
| 2026-05-01 11:05 | 39.10809 | 17.77469 | 16886 ft | 417 kts | 257° |
| 2026-05-01 11:05 | 39.10214 | 17.73832 | 16633 ft | 415 kts | 260° |
| 2026-05-01 11:06 | 39.09641 | 17.70194 | 16391 ft | 413 kts | 260° |
| 2026-05-01 11:06 | 39.09065 | 17.66562 | 16138 ft | 412 kts | 260° |
| 2026-05-01 11:06 | 39.08489 | 17.62961 | 15887 ft | 410 kts | 259° |
| 2026-05-01 11:07 | 39.07337 | 17.55784 | 15398 ft | 408 kts | 259° |
| 2026-05-01 11:07 | 39.06763 | 17.52214 | 15144 ft | 407 kts | 259° |
| 2026-05-01 11:07 | 39.06190 | 17.48660 | 14907 ft | 405 kts | 259° |
| 2026-05-01 11:07 | 39.05618 | 17.45116 | 14675 ft | 404 kts | 259° |
| 2026-05-01 11:08 | 39.05048 | 17.41570 | 14431 ft | 403 kts | 259° |
| 2026-05-01 11:08 | 39.04480 | 17.38046 | 14201 ft | 402 kts | 259° |
| 2026-05-01 11:08 | 39.03345 | 17.31072 | 13708 ft | 399 kts | 259° |
| 2026-05-01 11:09 | 39.02774 | 17.27576 | 13420 ft | 398 kts | 259° |
| 2026-05-01 11:09 | 39.02396 | 17.25259 | 13246 ft | 397 kts | 259° |
| 2026-05-01 11:09 | 39.01825 | 17.21779 | 12982 ft | 396 kts | 259° |
| 2026-05-01 11:10 | 39.00686 | 17.14872 | 12469 ft | 394 kts | 259° |
| 2026-05-01 11:10 | 39.00118 | 17.11420 | 12221 ft | 393 kts | 259° |
| 2026-05-01 11:10 | 38.99465 | 17.08002 | 11957 ft | 393 kts | 253° |
| 2026-05-01 11:10 | 38.98432 | 17.04754 | 11705 ft | 393 kts | 249° |
| 2026-05-01 11:11 | 38.97356 | 17.01523 | 11463 ft | 392 kts | 248° |
| 2026-05-01 11:11 | 38.96286 | 16.98314 | 11211 ft | 391 kts | 248° |
| 2026-05-01 11:11 | 38.95215 | 16.95108 | 10957 ft | 389 kts | 248° |
| 2026-05-01 11:11 | 38.94149 | 16.91925 | 10712 ft | 388 kts | 248° |
| 2026-05-01 11:12 | 38.93082 | 16.88740 | 10481 ft | 387 kts | 248° |
| 2026-05-01 11:12 | 38.92032 | 16.85607 | 10249 ft | 386 kts | 248° |
| 2026-05-01 11:12 | 38.90973 | 16.82440 | 10024 ft | 385 kts | 248° |
| 2026-05-01 11:12 | 38.89928 | 16.79316 | 9909 ft | 385 kts | 248° |
| 2026-05-01 11:13 | 38.88868 | 16.76159 | 9777 ft | 385 kts | 248° |
| 2026-05-01 11:13 | 38.87806 | 16.73006 | 9648 ft | 384 kts | 248° |
| 2026-05-01 11:13 | 38.86746 | 16.69865 | 9517 ft | 384 kts | 248° |
| 2026-05-01 11:13 | 38.85684 | 16.66715 | 9383 ft | 383 kts | 248° |
| 2026-05-01 11:14 | 38.84628 | 16.63576 | 9256 ft | 383 kts | 248° |
| 2026-05-01 11:14 | 38.83572 | 16.60436 | 9130 ft | 382 kts | 248° |
| 2026-05-01 11:14 | 38.82517 | 16.57306 | 9016 ft | 382 kts | 248° |
| 2026-05-01 11:14 | 38.81461 | 16.54186 | 8886 ft | 380 kts | 248° |
| 2026-05-01 11:15 | 38.80407 | 16.51079 | 8763 ft | 380 kts | 248° |
| 2026-05-01 11:15 | 38.79361 | 16.48006 | 8646 ft | 379 kts | 247° |
| 2026-05-01 11:15 | 38.78300 | 16.44903 | 8528 ft | 379 kts | 247° |
| 2026-05-01 11:15 | 38.77243 | 16.41814 | 8410 ft | 378 kts | 248° |
| 2026-05-01 11:16 | 38.76166 | 16.38716 | 8299 ft | 379 kts | 244° |
| 2026-05-01 11:16 | 38.74639 | 16.35966 | 8190 ft | 381 kts | 226° |
| 2026-05-01 11:16 | 38.72644 | 16.33716 | 8069 ft | 382 kts | 222° |
| 2026-05-01 11:16 | 38.70613 | 16.31517 | 7946 ft | 381 kts | 221° |
| 2026-05-01 11:17 | 38.68691 | 16.29456 | 7818 ft | 381 kts | 221° |
| 2026-05-01 11:17 | 38.66715 | 16.27347 | 7706 ft | 381 kts | 221° |
| 2026-05-01 11:17 | 38.64704 | 16.25205 | 8070 ft | 387 kts | 221° |
| 2026-05-01 11:17 | 38.62709 | 16.23084 | 9103 ft | 373 kts | 221° |
| 2026-05-01 11:18 | 38.60677 | 16.20914 | 9512 ft | 385 kts | 222° |
| 2026-05-01 11:18 | 38.58608 | 16.18697 | 10150 ft | 389 kts | 222° |
| 2026-05-01 11:18 | 38.56524 | 16.16462 | 10779 ft | 392 kts | 222° |
| 2026-05-01 11:18 | 38.54429 | 16.14214 | 11409 ft | 395 kts | 222° |
| 2026-05-01 11:19 | 38.52312 | 16.11947 | 12035 ft | 398 kts | 223° |
| 2026-05-01 11:19 | 38.50175 | 16.09663 | 12689 ft | 402 kts | 223° |
| 2026-05-01 11:19 | 38.48017 | 16.07363 | 13323 ft | 405 kts | 223° |
| 2026-05-01 11:19 | 38.45865 | 16.05071 | 13924 ft | 408 kts | 223° |
| 2026-05-01 11:20 | 38.43770 | 16.02827 | 14462 ft | 374 kts | 223° |
| 2026-05-01 11:20 | 38.41824 | 16.00763 | 14687 ft | 361 kts | 223° |
| 2026-05-01 11:20 | 38.39904 | 15.98735 | 14365 ft | 355 kts | 223° |
| 2026-05-01 11:20 | 38.38007 | 15.96731 | 14015 ft | 352 kts | 223° |
| 2026-05-01 11:21 | 38.36149 | 15.94769 | 13656 ft | 350 kts | 223° |
| 2026-05-01 11:21 | 38.34282 | 15.92792 | 13302 ft | 348 kts | 223° |
| 2026-05-01 11:21 | 38.32562 | 15.90964 | 12956 ft | 346 kts | 223° |
| 2026-05-01 11:21 | 38.30720 | 15.89002 | 12595 ft | 345 kts | 223° |
| 2026-05-01 11:22 | 38.28884 | 15.87038 | 12236 ft | 344 kts | 223° |
| 2026-05-01 11:22 | 38.27056 | 15.85084 | 11880 ft | 343 kts | 223° |
| 2026-05-01 11:22 | 38.25234 | 15.83145 | 11527 ft | 341 kts | 223° |
| 2026-05-01 11:22 | 38.23419 | 15.81216 | 11191 ft | 339 kts | 223° |
| 2026-05-01 11:23 | 38.21608 | 15.79293 | 10937 ft | 339 kts | 223° |
| 2026-05-01 11:23 | 38.19777 | 15.77354 | 10685 ft | 335 kts | 222° |
| 2026-05-01 11:23 | 38.18034 | 15.75508 | 10452 ft | 325 kts | 222° |
| 2026-05-01 11:23 | 38.16317 | 15.73692 | 10206 ft | 316 kts | 222° |
| 2026-05-01 11:24 | 38.14651 | 15.71929 | 10026 ft | 306 kts | 222° |
| 2026-05-01 11:24 | 38.13043 | 15.70230 | 9900 ft | 295 kts | 222° |
| 2026-05-01 11:24 | 38.09973 | 15.66991 | 9634 ft | 281 kts | 222° |
| 2026-05-01 11:25 | 38.08450 | 15.65429 | 9505 ft | 282 kts | 217° |
| 2026-05-01 11:25 | 38.04759 | 15.63672 | 8850 ft | 288 kts | 195° |
| 2026-05-01 11:25 | 38.02817 | 15.63117 | 8452 ft | 290 kts | 195° |
| 2026-05-01 11:26 | 38.00829 | 15.62548 | 7963 ft | 294 kts | 195° |
| 2026-05-01 11:26 | 37.96814 | 15.61392 | 7149 ft | 297 kts | 195° |
| 2026-05-01 11:26 | 37.94792 | 15.60810 | 6744 ft | 298 kts | 195° |
| 2026-05-01 11:27 | 37.92815 | 15.60046 | 6327 ft | 296 kts | 205° |
| 2026-05-01 11:27 | 37.90951 | 15.58945 | 5898 ft | 296 kts | 210° |
| 2026-05-01 11:27 | 37.89151 | 15.57666 | 5463 ft | 296 kts | 212° |
| 2026-05-01 11:27 | 37.87376 | 15.56348 | 5040 ft | 296 kts | 212° |
| 2026-05-01 11:28 | 37.85599 | 15.55047 | 4726 ft | 292 kts | 208° |
| 2026-05-01 11:28 | 37.83672 | 15.54533 | 4696 ft | 280 kts | 174° |
| 2026-05-01 11:28 | 37.81978 | 15.55382 | 4703 ft | 256 kts | 138° |
| 2026-05-01 11:29 | 37.81349 | 15.58975 | 4702 ft | 206 kts | 51° |
| 2026-05-01 11:29 | 37.82412 | 15.60129 | 4713 ft | 202 kts | 26° |
| 2026-05-01 11:29 | 37.85037 | 15.61374 | 4554 ft | 202 kts | 9° |
| 2026-05-01 11:30 | 37.86412 | 15.61629 | 4324 ft | 198 kts | 5° |
| 2026-05-01 11:30 | 37.87777 | 15.61929 | 4163 ft | 199 kts | 11° |
| 2026-05-01 11:30 | 37.89077 | 15.62298 | 4006 ft | 184 kts | 9° |
| 2026-05-01 11:30 | 37.90309 | 15.62479 | 3800 ft | 174 kts | 359° |
| 2026-05-01 11:31 | 37.91485 | 15.62371 | 3565 ft | 165 kts | 352° |
| 2026-05-01 11:31 | 37.92589 | 15.62220 | 3338 ft | 158 kts | 353° |
| 2026-05-01 11:31 | 37.93663 | 15.62082 | 3127 ft | 152 kts | 355° |
| 2026-05-01 11:31 | 37.94699 | 15.62189 | 3036 ft | 148 kts | 12° |
| 2026-05-01 11:32 | 37.95688 | 15.62546 | 2978 ft | 147 kts | 15° |
| 2026-05-01 11:32 | 37.96657 | 15.62944 | 2929 ft | 148 kts | 16° |
| 2026-05-01 11:32 | 37.97651 | 15.63371 | 2765 ft | 148 kts | 17° |
| 2026-05-01 11:32 | 37.98610 | 15.63793 | 2594 ft | 148 kts | 17° |
| 2026-05-01 11:33 | 37.99578 | 15.64222 | 2412 ft | 147 kts | 17° |
| 2026-05-01 11:33 | 38.00549 | 15.64654 | 2231 ft | 147 kts | 17° |
| 2026-05-01 11:33 | 38.01524 | 15.65089 | 1943 ft | 149 kts | 18° |
| 2026-05-01 11:33 | 38.02509 | 15.65529 | 1635 ft | 151 kts | 18° |
| 2026-05-01 11:34 | 38.03514 | 15.65978 | 1340 ft | 155 kts | 17° |
| 2026-05-01 11:34 | 38.04568 | 15.66331 | 951 ft | 163 kts | 1° |
| 2026-05-01 11:34 | 38.05679 | 15.66125 | 450 ft | 164 kts | 328° |
| 2026-05-01 11:34 | 38.06662 | 15.65427 | 52 ft | 157 kts | 331° |
| 2026-05-01 11:35 | 38.07490 | 15.64851 | 62 ft | 126 kts | 326° |
| 2026-05-01 11:35 | 38.08247 | 15.64113 | 502 ft | 134 kts | 320° |
| 2026-05-01 11:35 | 38.09014 | 15.63422 | 1178 ft | 150 kts | 315° |
| 2026-05-01 11:35 | 38.09923 | 15.62509 | 1680 ft | 170 kts | 310° |
| 2026-05-01 11:36 | 38.10199 | 15.61275 | 2944 ft | 146 kts | 257° |
| 2026-05-01 11:36 | 38.09520 | 15.60071 | 3110 ft | 199 kts | 222° |
| 2026-05-01 11:36 | 38.08310 | 15.58998 | 3445 ft | 229 kts | 212° |
| 2026-05-01 11:36 | 38.06834 | 15.57970 | 3525 ft | 246 kts | 211° |
| 2026-05-01 11:37 | 38.05441 | 15.56981 | 3529 ft | 213 kts | 212° |
| 2026-05-01 11:37 | 38.04159 | 15.56150 | 3528 ft | 203 kts | 202° |
| 2026-05-01 11:37 | 38.02838 | 15.55577 | 3518 ft | 197 kts | 199° |
| 2026-05-01 11:37 | 38.01553 | 15.55056 | 3575 ft | 183 kts | 200° |
| 2026-05-01 11:38 | 38.00465 | 15.54626 | 4481 ft | 149 kts | 200° |
| 2026-05-01 11:38 | 37.99457 | 15.54233 | 4799 ft | 171 kts | 200° |
| 2026-05-01 11:38 | 37.98306 | 15.53775 | 5539 ft | 165 kts | 201° |
| 2026-05-01 11:38 | 37.97139 | 15.53303 | 5701 ft | 213 kts | 201° |
| 2026-05-01 11:39 | 37.95448 | 15.52620 | 5379 ft | 285 kts | 199° |
| 2026-05-01 11:39 | 37.93400 | 15.51802 | 5372 ft | 329 kts | 199° |
| 2026-05-01 11:39 | 37.91109 | 15.50878 | 5101 ft | 372 kts | 199° |
| 2026-05-01 11:39 | 37.88562 | 15.49839 | 5028 ft | 386 kts | 199° |
| 2026-05-01 11:40 | 37.85952 | 15.48952 | 4142 ft | 394 kts | 185° |
| 2026-05-01 11:40 | 37.83284 | 15.49042 | 4206 ft | 376 kts | 160° |
| 2026-05-01 11:40 | 37.81398 | 15.51113 | 4184 ft | 360 kts | 118° |
| 2026-05-01 11:40 | 37.80628 | 15.54072 | 3952 ft | 362 kts | 95° |
| 2026-05-01 11:41 | 37.80926 | 15.57299 | 3504 ft | 373 kts | 71° |
| 2026-05-01 11:41 | 37.81756 | 15.60305 | 3755 ft | 353 kts | 68° |
| 2026-05-01 11:41 | 37.82724 | 15.63138 | 3550 ft | 358 kts | 56° |
| 2026-05-01 11:41 | 37.84527 | 15.65369 | 3235 ft | 369 kts | 29° |
| 2026-05-01 11:42 | 37.86800 | 15.66711 | 3234 ft | 360 kts | 15° |
| 2026-05-01 11:42 | 37.89310 | 15.67030 | 3088 ft | 366 kts | 359° |
| 2026-05-01 11:42 | 37.91798 | 15.66987 | 3233 ft | 353 kts | 357° |
| 2026-05-01 11:42 | 37.94206 | 15.66269 | 3061 ft | 363 kts | 333° |
| 2026-05-01 11:43 | 37.96297 | 15.64537 | 3123 ft | 352 kts | 324° |
| 2026-05-01 11:43 | 37.98273 | 15.62809 | 3249 ft | 343 kts | 330° |
| 2026-05-01 11:43 | 38.00550 | 15.61930 | 3242 ft | 346 kts | 359° |
| 2026-05-01 11:44 | 38.04157 | 15.65204 | 4546 ft | 309 kts | 33° |
| 2026-05-01 11:44 | 38.06081 | 15.66344 | 5543 ft | 316 kts | 18° |
| 2026-05-01 11:44 | 38.08172 | 15.67517 | 5900 ft | 340 kts | 22° |
| 2026-05-01 11:44 | 38.10510 | 15.68320 | 6266 ft | 358 kts | 2° |
| 2026-05-01 11:45 | 38.13006 | 15.67990 | 6644 ft | 374 kts | 341° |
| 2026-05-01 11:45 | 38.15304 | 15.66460 | 7480 ft | 377 kts | 321° |
| 2026-05-01 11:45 | 38.17236 | 15.64168 | 8382 ft | 383 kts | 314° |
| 2026-05-01 11:45 | 38.19128 | 15.61787 | 9226 ft | 391 kts | 314° |
| 2026-05-01 11:46 | 38.21095 | 15.59218 | 9372 ft | 401 kts | 313° |
| 2026-05-01 11:46 | 38.22978 | 15.56752 | 10922 ft | 377 kts | 313° |
| 2026-05-01 11:46 | 38.24573 | 15.54180 | 12157 ft | 362 kts | 298° |
| 2026-05-01 11:46 | 38.25445 | 15.51205 | 12569 ft | 367 kts | 283° |
| 2026-05-01 11:47 | 38.25368 | 15.47683 | 11043 ft | 432 kts | 261° |
| 2026-05-01 11:47 | 38.24771 | 15.43989 | 12157 ft | 412 kts | 259° |
| 2026-05-01 11:47 | 38.23937 | 15.40575 | 13094 ft | 407 kts | 250° |
| 2026-05-01 11:47 | 38.21991 | 15.37698 | 12403 ft | 449 kts | 220° |
| 2026-05-01 11:48 | 38.20341 | 15.36174 | 13279 ft | 435 kts | 218° |
| 2026-05-01 11:48 | 38.17912 | 15.34094 | 14151 ft | 407 kts | 218° |
| 2026-05-01 11:48 | 38.15536 | 15.32252 | 14037 ft | 395 kts | 212° |
| 2026-05-01 11:48 | 38.13120 | 15.30658 | 13463 ft | 389 kts | 214° |
| 2026-05-01 11:49 | 38.10659 | 15.29234 | 12756 ft | 391 kts | 199° |
| 2026-05-01 11:49 | 38.07944 | 15.28863 | 12059 ft | 397 kts | 179° |
| 2026-05-01 11:49 | 38.05249 | 15.29659 | 11380 ft | 399 kts | 159° |
| 2026-05-01 11:49 | 38.02730 | 15.31161 | 10728 ft | 397 kts | 155° |
| 2026-05-01 11:50 | 38.00266 | 15.32702 | 10100 ft | 394 kts | 154° |
| 2026-05-01 11:50 | 37.97941 | 15.34533 | 9417 ft | 391 kts | 146° |
| 2026-05-01 11:50 | 37.95756 | 15.36500 | 8749 ft | 387 kts | 145° |
| 2026-05-01 11:50 | 37.93578 | 15.38472 | 8088 ft | 383 kts | 145° |
| 2026-05-01 11:51 | 37.91419 | 15.40426 | 7440 ft | 379 kts | 145° |
| 2026-05-01 11:51 | 37.89283 | 15.42356 | 6809 ft | 375 kts | 145° |
| 2026-05-01 11:51 | 37.87248 | 15.44412 | 6146 ft | 372 kts | 133° |
| 2026-05-01 11:51 | 37.85793 | 15.47082 | 5479 ft | 368 kts | 115° |
| 2026-05-01 11:52 | 37.85084 | 15.50144 | 4843 ft | 360 kts | 93° |
| 2026-05-01 11:52 | 37.85294 | 15.53253 | 4161 ft | 351 kts | 72° |
| 2026-05-01 11:52 | 37.86325 | 15.56000 | 3523 ft | 343 kts | 53° |
| 2026-05-01 11:52 | 37.87868 | 15.58178 | 3158 ft | 330 kts | 38° |
| 2026-05-01 11:53 | 37.89712 | 15.59715 | 3188 ft | 306 kts | 25° |
| 2026-05-01 11:53 | 37.91614 | 15.60680 | 3205 ft | 285 kts | 18° |
| 2026-05-01 11:53 | 37.93443 | 15.61486 | 3114 ft | 272 kts | 18° |
| 2026-05-01 11:53 | 37.95190 | 15.62262 | 2884 ft | 258 kts | 18° |
| 2026-05-01 11:54 | 37.96831 | 15.62994 | 2647 ft | 241 kts | 18° |
| 2026-05-01 11:54 | 37.98366 | 15.63680 | 2409 ft | 226 kts | 17° |
| 2026-05-01 11:54 | 37.99809 | 15.64324 | 2154 ft | 214 kts | 18° |
| 2026-05-01 11:54 | 38.01155 | 15.64925 | 1990 ft | 200 kts | 18° |
| 2026-05-01 11:55 | 38.02433 | 15.65496 | 1745 ft | 190 kts | 19° |
| 2026-05-01 11:55 | 38.03615 | 15.66024 | 1541 ft | 172 kts | 18° |
| 2026-05-01 11:55 | 38.04772 | 15.66292 | 1048 ft | 175 kts | 356° |
| 2026-05-01 11:55 | 38.05954 | 15.65938 | 473 ft | 174 kts | 333° |
| 2026-05-01 11:56 | 38.07033 | 15.65251 | 76 ft | 164 kts | 324° |
| 2026-05-01 11:56 | 38.07870 | 15.64703 | 58 ft | 80 kts | 334° |
| 2026-05-01 11:56 | 38.08011 | 15.64616 | 68 ft | 0 kts | 334° |
| 2026-05-01 11:56 | 38.08029 | 15.64602 | 83 ft | 22 kts | 325° |
| 2026-05-01 11:57 | 38.08042 | 15.64551 | 81 ft | 0 kts | 199° |
| 2026-05-01 11:57 | 38.07940 | 15.64621 | 74 ft | 37 kts | 154° |
| 2026-05-01 11:57 | 38.07690 | 15.64783 | 61 ft | 43 kts | 152° |
| 2026-05-01 11:57 | 38.07448 | 15.64940 | 51 ft | 25 kts | 153° |
| 2026-05-01 11:58 | 38.07364 | 15.65003 | 51 ft | 12 kts | 150° |
| 2026-05-01 11:58 | 38.07299 | 15.65099 | 46 ft | 18 kts | 79° |
| 2026-05-01 11:58 | 38.07369 | 15.65296 | 49 ft | 0 kts | 65° |